Rick Pumphrey — WDF8497 — position and weather

sailwx.info

Track history (hours):
 
Tides and Currents Weather Stations Pressure Air Temp Water Temp Dewpoint Dewpoint Depression Visibility Wind Speed Wind Dir Waves Ship Positions

Rick Pumphrey

Owner: Blessey Enterprises, Inc., Harahan, LA. More information available from US FCC via Universal Licensing System and Coast Guard Vessel Documentation Center.

Last reported at 2017-Dec-11 16:57 UTC. Time now 2017-Dec-12 21:54 UTC.
Position N 29°42' W 095°02'.

; draft 2.4 m.

Type: Tug. MMSI: 367495480.

Date/timePositionNaut miles runAvg speedWind from/ knotsBaromVisibWave heightAir tempDewpointWater temp
2017-Dec-11 16:57N 29°42' W 095°02'0 0.0
2017-Dec-11 16:28N 29°42' W 095°02'0 0.0
2017-Dec-11 15:46N 29°42' W 095°02'0 0.0
2017-Dec-11 15:12N 29°42' W 095°02'0 0.0
2017-Dec-11 14:59N 29°42' W 095°02'0 0.0
2017-Dec-11 14:22N 29°42' W 095°02'0 0.0
2017-Dec-11 14:00N 29°42' W 095°02'0 0.0
2017-Dec-11 13:30N 29°42' W 095°02'0 0.0
2017-Dec-11 13:00N 29°42' W 095°02'0 0.0
2017-Dec-11 12:24N 29°42' W 095°02'0 0.0
2017-Dec-11 11:58N 29°42' W 095°02'0 0.0
2017-Dec-11 11:29N 29°42' W 095°02'0 0.0
2017-Dec-11 11:00N 29°42' W 095°02'0 0.0
2017-Dec-11 10:30N 29°42' W 095°02'0 0.0
2017-Dec-11 10:00N 29°42' W 095°02'0 0.0
2017-Dec-11 09:29N 29°42' W 095°02'0 0.0
2017-Dec-11 08:58N 29°42' W 095°02'0 0.0
2017-Dec-11 08:26N 29°42' W 095°02'0 0.0
2017-Dec-11 07:03N 29°42' W 095°02'0 0.0
2017-Dec-11 06:53N 29°42' W 095°02'0 0.0
2017-Dec-11 06:27N 29°42' W 095°02'1 2.2
2017-Dec-11 06:01N 29°43' W 095°03'0 0.0
2017-Dec-11 05:12N 29°43' W 095°03'0 0.0
2017-Dec-11 03:41N 29°43' W 095°03'0 0.0
2017-Dec-11 03:26N 29°43' W 095°03'0 0.0
2017-Dec-10 17:58N 29°43' W 095°03'2 3.1
2017-Dec-10 17:23N 29°44' W 095°02'5 0.6
2017-Dec-10 10:20N 29°47' W 095°05'1 0.4
2017-Dec-10 06:27N 29°46' W 095°05'1 1.1
2017-Dec-10 05:41N 29°46' W 095°06'1 4.6
2017-Dec-10 05:30N 29°46' W 095°05'0 0.0
2017-Dec-10 02:04N 29°46' W 095°05'0 5.1
2017-Dec-10 02:00N 29°46' W 095°05'3 2.9
2017-Dec-10 01:02N 29°44' W 095°08'0 8.0
2017-Dec-10 01:00N 29°44' W 095°08'4 6.9
2017-Dec-10 00:29N 29°44' W 095°12'0 0.0
2017-Dec-09 22:59N 29°44' W 095°12'0 0.0
2017-Dec-09 21:35N 29°44' W 095°12'0 0.0
2017-Dec-09 21:15N 29°44' W 095°12'0 0.0
2017-Dec-09 20:13N 29°44' W 095°12'0 0.0
2017-Dec-09 19:50N 29°44' W 095°12'0 0.0
2017-Dec-09 19:29N 29°44' W 095°12'0 0.0
2017-Dec-09 17:47N 29°44' W 095°12'0 0.1
2017-Dec-09 13:37N 29°44' W 095°12'0 0.0
2017-Dec-09 13:24N 29°44' W 095°12'0 0.0
2017-Dec-09 12:37N 29°44' W 095°12'0 0.0
2017-Dec-09 12:30N 29°44' W 095°12'0 0.5
2017-Dec-09 12:00N 29°44' W 095°12'0 0.4
2017-Dec-09 11:30N 29°44' W 095°12'0 0.0
2017-Dec-09 11:00N 29°44' W 095°12'0 0.0
2017-Dec-09 10:23N 29°44' W 095°12'0 0.3
2017-Dec-09 10:00N 29°44' W 095°12'0 0.0
2017-Dec-09 09:30N 29°44' W 095°12'0 0.0
2017-Dec-09 08:55N 29°44' W 095°12'0 0.1
2017-Dec-09 08:30N 29°44' W 095°12'0 0.0
2017-Dec-09 07:56N 29°44' W 095°12'0 0.0
2017-Dec-09 07:25N 29°44' W 095°12'0 0.0
2017-Dec-09 06:57N 29°44' W 095°12'0 0.0
2017-Dec-09 06:28N 29°44' W 095°12'0 0.0
2017-Dec-09 05:58N 29°44' W 095°12'0 0.0
2017-Dec-09 05:30N 29°44' W 095°12'0 0.0
2017-Dec-09 05:01N 29°44' W 095°12'0 0.0
2017-Dec-09 04:29N 29°44' W 095°12'0 0.0
2017-Dec-09 04:00N 29°44' W 095°12'0 0.0
2017-Dec-09 03:29N 29°44' W 095°12'0 0.0
2017-Dec-09 02:58N 29°44' W 095°12'0 0.0
2017-Dec-09 00:53N 29°44' W 095°12'3 5.4
2017-Dec-09 00:22N 29°44' W 095°09'5 4.0
2017-Dec-08 23:08N 29°47' W 095°05'0 0.0
2017-Dec-08 23:00N 29°47' W 095°05'0 0.0
2017-Dec-08 22:30N 29°47' W 095°05'5 1.0
2017-Dec-08 17:21N 29°43' W 095°01'1 0.1
2017-Dec-08 02:19N 29°42' W 095°02'0 0.0
2017-Dec-08 01:59N 29°42' W 095°02'0 0.0
2017-Dec-08 01:27N 29°42' W 095°02'0 0.0
2017-Dec-08 01:00N 29°42' W 095°02'0 0.0
2017-Dec-08 00:30N 29°42' W 095°02'0 0.0
2017-Dec-08 00:00N 29°42' W 095°02'0 0.0
2017-Dec-07 23:25N 29°42' W 095°02'0 0.0
2017-Dec-07 22:32N 29°42' W 095°02'0 0.0
2017-Dec-07 22:20N 29°42' W 095°02'0 0.0
2017-Dec-07 21:55N 29°42' W 095°02'0 0.0
2017-Dec-07 21:28N 29°42' W 095°02'0 0.0
2017-Dec-07 21:00N 29°42' W 095°02'0 0.0
2017-Dec-07 20:30N 29°42' W 095°02'0 0.0
2017-Dec-07 20:00N 29°42' W 095°02'0 0.0
2017-Dec-07 19:31N 29°42' W 095°02'0 0.0
2017-Dec-07 19:00N 29°42' W 095°02'0 0.0
2017-Dec-07 18:28N 29°42' W 095°02'0 0.0
2017-Dec-07 18:00N 29°42' W 095°02'0 0.0
2017-Dec-07 17:30N 29°42' W 095°02'0 0.0
2017-Dec-07 17:00N 29°42' W 095°02'0 0.0
2017-Dec-07 16:30N 29°42' W 095°02'0 0.0
2017-Dec-07 16:00N 29°42' W 095°02'0 0.0
2017-Dec-07 15:05N 29°42' W 095°02'0 0.0
2017-Dec-07 14:59N 29°42' W 095°02'0 0.0
2017-Dec-07 14:30N 29°42' W 095°02'0 0.0
2017-Dec-07 11:17N 29°42' W 095°02'0 0.0
2017-Dec-07 10:59N 29°42' W 095°02'0 0.0
2017-Dec-07 10:29N 29°42' W 095°02'0 0.0
2017-Dec-07 10:00N 29°42' W 095°02'0 0.0
2017-Dec-07 09:30N 29°42' W 095°02'0 0.0
2017-Dec-07 08:59N 29°42' W 095°02'0 0.0
2017-Dec-07 08:21N 29°42' W 095°02'0 0.0
2017-Dec-07 07:58N 29°42' W 095°02'0 0.0
2017-Dec-07 07:29N 29°42' W 095°02'0 0.0
2017-Dec-07 06:57N 29°42' W 095°02'0 0.0
2017-Dec-07 06:12N 29°42' W 095°02'1 2.7
2017-Dec-07 06:00N 29°43' W 095°03'  
2017-Dec-04 10:30N 29°42' W 095°02'0 0.0
2017-Dec-04 10:00N 29°42' W 095°02'0 0.0
2017-Dec-04 09:30N 29°42' W 095°02'0 0.0
2017-Dec-04 08:57N 29°42' W 095°02'0 0.0
2017-Dec-04 08:29N 29°42' W 095°02'0 0.0
2017-Dec-04 08:00N 29°42' W 095°02'0 0.0
2017-Dec-04 07:29N 29°42' W 095°02'0 0.0
2017-Dec-04 06:58N 29°42' W 095°02'0 0.0
2017-Dec-04 06:29N 29°42' W 095°02'0 0.0
2017-Dec-04 06:00N 29°42' W 095°02'0 0.0
2017-Dec-04 05:30N 29°42' W 095°02'0 0.0
2017-Dec-04 04:55N 29°42' W 095°02'1 3.6
2017-Dec-04 04:30N 29°42' W 095°01'3 6.7
2017-Dec-04 04:00N 29°40' W 094°58'3 5.5
2017-Dec-04 03:30N 29°37' W 094°58'3 5.3
2017-Dec-04 03:00N 29°37' W 095°01'0 0.0
2017-Dec-04 02:30N 29°37' W 095°01'0 0.0
2017-Dec-04 02:00N 29°37' W 095°01'0 0.0
2017-Dec-04 01:30N 29°37' W 095°01'0 0.0
2017-Dec-04 01:00N 29°37' W 095°01'0 0.0
2017-Dec-04 00:31N 29°37' W 095°01'0 0.0
2017-Dec-04 00:00N 29°37' W 095°01'0 0.0
2017-Dec-03 23:30N 29°37' W 095°01'0 0.0
2017-Dec-03 23:00N 29°37' W 095°01'0 0.0
2017-Dec-03 22:30N 29°37' W 095°01'0 0.0
2017-Dec-03 22:01N 29°37' W 095°01'0 0.0
2017-Dec-03 21:30N 29°37' W 095°01'0 0.0
2017-Dec-03 21:01N 29°37' W 095°01'0 0.0
2017-Dec-03 20:30N 29°37' W 095°01'0 0.0
2017-Dec-03 20:00N 29°37' W 095°01'0 0.0
2017-Dec-03 19:30N 29°37' W 095°01'0 0.0
2017-Dec-03 19:00N 29°37' W 095°01'0 0.0
2017-Dec-03 18:30N 29°37' W 095°01'0 0.0
2017-Dec-03 18:00N 29°37' W 095°01'0 0.0
2017-Dec-03 17:30N 29°37' W 095°01'0 0.0
2017-Dec-03 17:00N 29°37' W 095°01'0 0.0
2017-Dec-03 16:30N 29°37' W 095°01'0 0.0
2017-Dec-03 16:00N 29°37' W 095°01'0 0.0
2017-Dec-03 15:30N 29°37' W 095°01'0 0.0
2017-Dec-03 15:01N 29°37' W 095°01'0 0.0
2017-Dec-03 14:30N 29°37' W 095°01'0 0.0
2017-Dec-03 14:00N 29°37' W 095°01'0 0.0
2017-Dec-03 13:31N 29°37' W 095°01'0 0.0
2017-Dec-03 13:00N 29°37' W 095°01'0 0.0
2017-Dec-03 12:30N 29°37' W 095°01'2 4.3
2017-Dec-03 12:00N 29°37' W 094°59'3 5.1
2017-Dec-03 11:31N 29°39' W 094°58'4 7.1
2017-Dec-03 11:00N 29°42' W 095°01'6 2.7
2017-Dec-03 08:48N 29°47' W 095°05'0 0.0
2017-Dec-03 05:11N 29°47' W 095°05'0 0.0
2017-Dec-03 05:00N 29°47' W 095°05'0 0.0
2017-Dec-03 04:30N 29°47' W 095°05'0 0.0
2017-Dec-03 03:59N 29°47' W 095°05'3 0.2
2017-Dec-02 10:53N 29°44' W 095°07'3 6.6
2017-Dec-02 10:29N 29°45' W 095°10'2 0.3
2017-Dec-02 02:01N 29°44' W 095°12'0 0.1
2017-Dec-02 01:52N 29°44' W 095°12'0 0.2
2017-Dec-02 01:28N 29°44' W 095°12'0 0.0
2017-Dec-02 00:59N 29°44' W 095°12'0 0.0
2017-Dec-02 00:29N 29°44' W 095°12'0 0.0
2017-Dec-01 23:59N 29°44' W 095°12'  
Track history (hours):
 
Tides and Currents Weather Stations Pressure Air Temp Water Temp Dewpoint Dewpoint Depression Visibility Wind Speed Wind Dir Waves Ship Positions

Rick Pumphrey

Owner: Blessey Enterprises, Inc., Harahan, LA. More information available from US FCC via Universal Licensing System and Coast Guard Vessel Documentation Center.

Last reported at 2017-Dec-11 16:57 UTC. Time now 2017-Dec-12 21:54 UTC.
Position N 29°42' W 095°02'.

; draft 2.4 m.

Type: Tug. MMSI: 367495480.

Date/timePositionNaut miles runAvg speedWind from/ knotsBaromVisibWave heightAir tempDewpointWater temp
2017-Dec-11 16:57N 29°42' W 095°02'0 0.0
2017-Dec-11 16:28N 29°42' W 095°02'0 0.0
2017-Dec-11 15:46N 29°42' W 095°02'0 0.0
2017-Dec-11 15:12N 29°42' W 095°02'0 0.0
2017-Dec-11 14:59N 29°42' W 095°02'0 0.0
2017-Dec-11 14:22N 29°42' W 095°02'0 0.0
2017-Dec-11 14:00N 29°42' W 095°02'0 0.0
2017-Dec-11 13:30N 29°42' W 095°02'0 0.0
2017-Dec-11 13:00N 29°42' W 095°02'0 0.0
2017-Dec-11 12:24N 29°42' W 095°02'0 0.0
2017-Dec-11 11:58N 29°42' W 095°02'0 0.0
2017-Dec-11 11:29N 29°42' W 095°02'0 0.0
2017-Dec-11 11:00N 29°42' W 095°02'0 0.0
2017-Dec-11 10:30N 29°42' W 095°02'0 0.0
2017-Dec-11 10:00N 29°42' W 095°02'0 0.0
2017-Dec-11 09:29N 29°42' W 095°02'0 0.0
2017-Dec-11 08:58N 29°42' W 095°02'0 0.0
2017-Dec-11 08:26N 29°42' W 095°02'0 0.0
2017-Dec-11 07:03N 29°42' W 095°02'0 0.0
2017-Dec-11 06:53N 29°42' W 095°02'0 0.0
2017-Dec-11 06:27N 29°42' W 095°02'1 2.2
2017-Dec-11 06:01N 29°43' W 095°03'0 0.0
2017-Dec-11 05:12N 29°43' W 095°03'0 0.0
2017-Dec-11 03:41N 29°43' W 095°03'0 0.0
2017-Dec-11 03:26N 29°43' W 095°03'0 0.0
2017-Dec-10 17:58N 29°43' W 095°03'2 3.1
2017-Dec-10 17:23N 29°44' W 095°02'5 0.6
2017-Dec-10 10:20N 29°47' W 095°05'1 0.4
2017-Dec-10 06:27N 29°46' W 095°05'1 1.1
2017-Dec-10 05:41N 29°46' W 095°06'1 4.6
2017-Dec-10 05:30N 29°46' W 095°05'0 0.0
2017-Dec-10 02:04N 29°46' W 095°05'0 5.1
2017-Dec-10 02:00N 29°46' W 095°05'3 2.9
2017-Dec-10 01:02N 29°44' W 095°08'0 8.0
2017-Dec-10 01:00N 29°44' W 095°08'4 6.9
2017-Dec-10 00:29N 29°44' W 095°12'0 0.0
2017-Dec-09 22:59N 29°44' W 095°12'0 0.0
2017-Dec-09 21:35N 29°44' W 095°12'0 0.0
2017-Dec-09 21:15N 29°44' W 095°12'0 0.0
2017-Dec-09 20:13N 29°44' W 095°12'0 0.0
2017-Dec-09 19:50N 29°44' W 095°12'0 0.0
2017-Dec-09 19:29N 29°44' W 095°12'0 0.0
2017-Dec-09 17:47N 29°44' W 095°12'0 0.1
2017-Dec-09 13:37N 29°44' W 095°12'0 0.0
2017-Dec-09 13:24N 29°44' W 095°12'0 0.0
2017-Dec-09 12:37N 29°44' W 095°12'0 0.0
2017-Dec-09 12:30N 29°44' W 095°12'0 0.5
2017-Dec-09 12:00N 29°44' W 095°12'0 0.4
2017-Dec-09 11:30N 29°44' W 095°12'0 0.0
2017-Dec-09 11:00N 29°44' W 095°12'0 0.0
2017-Dec-09 10:23N 29°44' W 095°12'0 0.3
2017-Dec-09 10:00N 29°44' W 095°12'0 0.0
2017-Dec-09 09:30N 29°44' W 095°12'0 0.0
2017-Dec-09 08:55N 29°44' W 095°12'0 0.1
2017-Dec-09 08:30N 29°44' W 095°12'0 0.0
2017-Dec-09 07:56N 29°44' W 095°12'0 0.0
2017-Dec-09 07:25N 29°44' W 095°12'0 0.0
2017-Dec-09 06:57N 29°44' W 095°12'0 0.0
2017-Dec-09 06:28N 29°44' W 095°12'0 0.0
2017-Dec-09 05:58N 29°44' W 095°12'0 0.0
2017-Dec-09 05:30N 29°44' W 095°12'0 0.0
2017-Dec-09 05:01N 29°44' W 095°12'0 0.0
2017-Dec-09 04:29N 29°44' W 095°12'0 0.0
2017-Dec-09 04:00N 29°44' W 095°12'0 0.0
2017-Dec-09 03:29N 29°44' W 095°12'0 0.0
2017-Dec-09 02:58N 29°44' W 095°12'0 0.0
2017-Dec-09 00:53N 29°44' W 095°12'3 5.4
2017-Dec-09 00:22N 29°44' W 095°09'5 4.0
2017-Dec-08 23:08N 29°47' W 095°05'0 0.0
2017-Dec-08 23:00N 29°47' W 095°05'0 0.0
2017-Dec-08 22:30N 29°47' W 095°05'5 1.0
2017-Dec-08 17:21N 29°43' W 095°01'1 0.1
2017-Dec-08 02:19N 29°42' W 095°02'0 0.0
2017-Dec-08 01:59N 29°42' W 095°02'0 0.0
2017-Dec-08 01:27N 29°42' W 095°02'0 0.0
2017-Dec-08 01:00N 29°42' W 095°02'0 0.0
2017-Dec-08 00:30N 29°42' W 095°02'0 0.0
2017-Dec-08 00:00N 29°42' W 095°02'0 0.0
2017-Dec-07 23:25N 29°42' W 095°02'0 0.0
2017-Dec-07 22:32N 29°42' W 095°02'0 0.0
2017-Dec-07 22:20N 29°42' W 095°02'0 0.0
2017-Dec-07 21:55N 29°42' W 095°02'0 0.0
2017-Dec-07 21:28N 29°42' W 095°02'0 0.0
2017-Dec-07 21:00N 29°42' W 095°02'0 0.0
2017-Dec-07 20:30N 29°42' W 095°02'0 0.0
2017-Dec-07 20:00N 29°42' W 095°02'0 0.0
2017-Dec-07 19:31N 29°42' W 095°02'0 0.0
2017-Dec-07 19:00N 29°42' W 095°02'0 0.0
2017-Dec-07 18:28N 29°42' W 095°02'0 0.0
2017-Dec-07 18:00N 29°42' W 095°02'0 0.0
2017-Dec-07 17:30N 29°42' W 095°02'0 0.0
2017-Dec-07 17:00N 29°42' W 095°02'0 0.0
2017-Dec-07 16:30N 29°42' W 095°02'0 0.0
2017-Dec-07 16:00N 29°42' W 095°02'0 0.0
2017-Dec-07 15:05N 29°42' W 095°02'0 0.0
2017-Dec-07 14:59N 29°42' W 095°02'0 0.0
2017-Dec-07 14:30N 29°42' W 095°02'0 0.0
2017-Dec-07 11:17N 29°42' W 095°02'0 0.0
2017-Dec-07 10:59N 29°42' W 095°02'0 0.0
2017-Dec-07 10:29N 29°42' W 095°02'0 0.0
2017-Dec-07 10:00N 29°42' W 095°02'0 0.0
2017-Dec-07 09:30N 29°42' W 095°02'0 0.0
2017-Dec-07 08:59N 29°42' W 095°02'0 0.0
2017-Dec-07 08:21N 29°42' W 095°02'0 0.0
2017-Dec-07 07:58N 29°42' W 095°02'0 0.0
2017-Dec-07 07:29N 29°42' W 095°02'0 0.0
2017-Dec-07 06:57N 29°42' W 095°02'0 0.0
2017-Dec-07 06:12N 29°42' W 095°02'1 2.7
2017-Dec-07 06:00N 29°43' W 095°03'  
2017-Dec-04 10:30N 29°42' W 095°02'0 0.0
2017-Dec-04 10:00N 29°42' W 095°02'0 0.0
2017-Dec-04 09:30N 29°42' W 095°02'0 0.0
2017-Dec-04 08:57N 29°42' W 095°02'0 0.0
2017-Dec-04 08:29N 29°42' W 095°02'0 0.0
2017-Dec-04 08:00N 29°42' W 095°02'0 0.0
2017-Dec-04 07:29N 29°42' W 095°02'0 0.0
2017-Dec-04 06:58N 29°42' W 095°02'0 0.0
2017-Dec-04 06:29N 29°42' W 095°02'0 0.0
2017-Dec-04 06:00N 29°42' W 095°02'0 0.0
2017-Dec-04 05:30N 29°42' W 095°02'0 0.0
2017-Dec-04 04:55N 29°42' W 095°02'1 3.6
2017-Dec-04 04:30N 29°42' W 095°01'3 6.7
2017-Dec-04 04:00N 29°40' W 094°58'3 5.5
2017-Dec-04 03:30N 29°37' W 094°58'3 5.3
2017-Dec-04 03:00N 29°37' W 095°01'0 0.0
2017-Dec-04 02:30N 29°37' W 095°01'0 0.0
2017-Dec-04 02:00N 29°37' W 095°01'0 0.0
2017-Dec-04 01:30N 29°37' W 095°01'0 0.0
2017-Dec-04 01:00N 29°37' W 095°01'0 0.0
2017-Dec-04 00:31N 29°37' W 095°01'0 0.0
2017-Dec-04 00:00N 29°37' W 095°01'0 0.0
2017-Dec-03 23:30N 29°37' W 095°01'0 0.0
2017-Dec-03 23:00N 29°37' W 095°01'0 0.0
2017-Dec-03 22:30N 29°37' W 095°01'0 0.0
2017-Dec-03 22:01N 29°37' W 095°01'0 0.0
2017-Dec-03 21:30N 29°37' W 095°01'0 0.0
2017-Dec-03 21:01N 29°37' W 095°01'0 0.0
2017-Dec-03 20:30N 29°37' W 095°01'0 0.0
2017-Dec-03 20:00N 29°37' W 095°01'0 0.0
2017-Dec-03 19:30N 29°37' W 095°01'0 0.0
2017-Dec-03 19:00N 29°37' W 095°01'0 0.0
2017-Dec-03 18:30N 29°37' W 095°01'0 0.0
2017-Dec-03 18:00N 29°37' W 095°01'0 0.0
2017-Dec-03 17:30N 29°37' W 095°01'0 0.0
2017-Dec-03 17:00N 29°37' W 095°01'0 0.0
2017-Dec-03 16:30N 29°37' W 095°01'0 0.0
2017-Dec-03 16:00N 29°37' W 095°01'0 0.0
2017-Dec-03 15:30N 29°37' W 095°01'0 0.0
2017-Dec-03 15:01N 29°37' W 095°01'0 0.0
2017-Dec-03 14:30N 29°37' W 095°01'0 0.0
2017-Dec-03 14:00N 29°37' W 095°01'0 0.0
2017-Dec-03 13:31N 29°37' W 095°01'0 0.0
2017-Dec-03 13:00N 29°37' W 095°01'0 0.0
2017-Dec-03 12:30N 29°37' W 095°01'2 4.3
2017-Dec-03 12:00N 29°37' W 094°59'3 5.1
2017-Dec-03 11:31N 29°39' W 094°58'4 7.1
2017-Dec-03 11:00N 29°42' W 095°01'6 2.7
2017-Dec-03 08:48N 29°47' W 095°05'0 0.0
2017-Dec-03 05:11N 29°47' W 095°05'0 0.0
2017-Dec-03 05:00N 29°47' W 095°05'0 0.0
2017-Dec-03 04:30N 29°47' W 095°05'0 0.0
2017-Dec-03 03:59N 29°47' W 095°05'3 0.2
2017-Dec-02 10:53N 29°44' W 095°07'3 6.6
2017-Dec-02 10:29N 29°45' W 095°10'2 0.3
2017-Dec-02 02:01N 29°44' W 095°12'0 0.1
2017-Dec-02 01:52N 29°44' W 095°12'0 0.2
2017-Dec-02 01:28N 29°44' W 095°12'0 0.0
2017-Dec-02 00:59N 29°44' W 095°12'0 0.0
2017-Dec-02 00:29N 29°44' W 095°12'0 0.0
2017-Dec-01 23:59N 29°44' W 095°12'  

Dump ship's entire track history